Airfield :
LOGIN :

Register | Disclaimer

   EN    FR    IT 

 










Legend :    VFR   Marginal VFR   IFR   Intensive IFR   Very Intensive IFR
Visi :
Ceiling :
>= 8 km
>= 3000ft
5 to 8 km
1000 to 3000 ft
1500m to 5 km
500 to 1000 ft
800 to 1500m
200 to 500 ft
< 800m
< 200 ft
Symbols :   Thunderstorms  Fog  Heavy snow  Heavy precipitations  Wind > 20 kt
SIGMETs :     Misc.  Thunderstorms  Icing  Turbulence  Mountain Waves  Volcanic Ashes






- Airport Elevation : 776 ft
- IATA code : RMS


ETAR - Ramstein Air Base

CURRENT METAR :
  • 180957Z 25009KT 9000 -RA BKN014 OVC020 04/04 A3031 RMK AO2A RAB56 SLP276 FZRANO CHINO RWY08 $

EXPIRED METARs :
  • 180941Z 23009KT 9999 BKN016 OVC020 04/04 A3030 RMK AO2A CIG 015 RWY08 SLP273 FZRANO CHINO RWY08 $
  • 180926Z 22009G16KT 9999 BKN016 OVC020 04/03 A3029 RMK AO2A SLP269 FZRANO $
  • 180911Z AUTO 22008KT 9999 OVC014 04/04 A3029 RMK AO2 OVC V BKN SLP269 FZRANO $
  • 180856Z AUTO 24006KT 9999 BKN015 BKN022 OVC033 04/04 A3029 RMK AO2 CIG 015V023 BKN015 V SCT SLP269 T00410037 51006 FZRANO CHINO RWY08 $
  • 180838Z AUTO 21007KT 9999 FEW015 BKN021 OVC043 04/03 A3029 RMK AO2 CIG 021V043 SLP268 FZRANO CHINO RWY08 $
  • 180826Z AUTO 21005KT 9999 SCT023 OVC042 04/03 A3029 RMK AO2 SLP268 FZRANO CHINO RWY08 $
  • 180756Z AUTO 24007KT 9999 OVC025 04/03 A3029 RMK AO2 SLP268 T00390033 FZRANO CHINO RWY08 $

TAF TAF ETAR
Valid from the 18 at 02:00 until the 19 at 08:00 UTC


180200Z 1802/1908 25009KT 9999 BKN020 QNH3025INS
TEMPO 1802/1809 BKN015
BECMG 1808/1809 23009KT 9000 -SHRA BKN020 QNH3029INS
TEMPO 1810/1813 25010G20KT
BECMG 1812/1813 27009KT 9999 NSW SCT020 QNH3030INS
BECMG 1820/1821 29003KT 8000 BR SCT020 QNH3039INS TX05/1812Z TNM01/1900Z



MET'MAP, your aeronautical weather chart ! - Copyright ORBIFLY December 2007 - Disclaimer

ORBIFLY MET'MAP TEAM :

Programming & Development : Alexandra Zaïnal
Concept & original design : Baudouin d'Aumeries
Assistance for programming : Marc-Olivier Méhu
Technical & hardware support : Manuel Goepfert

Contact : metmap@orbifly.com




SOURCES & CREDITS :

   NOAA